createdAt,value
2022-12-24T00:01:12.030Z,11
2022-12-24T00:06:45.099Z,11.1
2022-12-24T00:12:23.368Z,11.1
2022-12-24T00:17:38.200Z,11.2
2022-12-24T00:23:14.668Z,11.2
2022-12-24T00:28:41.353Z,11.5
2022-12-24T00:34:21.252Z,11.4
2022-12-24T00:39:54.560Z,11.3
2022-12-24T00:45:16.151Z,11.3
2022-12-24T00:51:06.079Z,11.3
2022-12-24T00:56:27.484Z,11.3
2022-12-24T01:01:57.807Z,11.5
2022-12-24T01:07:37.928Z,11.4
2022-12-24T01:13:05.360Z,11.5
2022-12-24T01:18:34.654Z,11.3
2022-12-24T01:24:11.005Z,11.2
2022-12-24T01:29:48.855Z,11.4
2022-12-24T01:35:17.465Z,11.4
2022-12-24T01:40:53.159Z,11.3
2022-12-24T01:46:36.981Z,11.2
2022-12-24T01:51:53.768Z,11.3
2022-12-24T01:57:39.445Z,11.4
2022-12-24T02:03:14.599Z,11.6
2022-12-24T02:08:36.054Z,11.6
2022-12-24T02:14:25.013Z,11.6
2022-12-24T02:19:58.186Z,11.8
2022-12-24T02:25:23.420Z,11.8
2022-12-24T02:31:03.301Z,11.6
2022-12-24T02:36:22.487Z,11.3
2022-12-24T02:41:51.797Z,11.3
2022-12-24T02:47:51.981Z,11.6
2022-12-24T02:53:02.607Z,11.5
2022-12-24T02:58:30.406Z,11.4
2022-12-24T03:04:29.721Z,11.4
2022-12-24T03:09:40.864Z,11.4
2022-12-24T03:15:30.840Z,11.3
2022-12-24T03:20:59.959Z,11.2
2022-12-24T03:26:42.215Z,11.2
2022-12-24T03:31:49.936Z,10.9
2022-12-24T03:37:29.692Z,10.9
2022-12-24T03:43:22.692Z,11
2022-12-24T03:48:47.204Z,11
2022-12-24T03:54:01.679Z,11
2022-12-24T04:00:00.704Z,11.1
2022-12-24T04:05:16.249Z,11.1
2022-12-24T04:10:46.326Z,11
2022-12-24T04:16:17.738Z,11
2022-12-24T04:21:56.318Z,11
2022-12-24T04:27:30.516Z,11
2022-12-24T04:32:56.729Z,10.9
2022-12-24T04:38:25.223Z,10.7
2022-12-24T04:44:14.873Z,10.5
2022-12-24T04:49:38.815Z,10.2
2022-12-24T04:55:08.936Z,10.2
2022-12-24T05:01:00.253Z,10.2
2022-12-24T05:06:24.451Z,10.3
2022-12-24T05:11:59.723Z,10.4
2022-12-24T05:17:17.538Z,10.3
2022-12-24T05:23:06.394Z,10.4
2022-12-24T05:28:25.096Z,10.5
2022-12-24T05:34:06.258Z,10.5
2022-12-24T05:39:50.638Z,10.5
2022-12-24T05:45:24.477Z,10.5
2022-12-24T05:50:56.079Z,10.7
2022-12-24T05:56:19.542Z,10.5
2022-12-24T06:01:46.060Z,10.4
2022-12-24T06:07:25.707Z,10.4
2022-12-24T06:12:58.941Z,10.2
2022-12-24T06:18:32.812Z,9.8
2022-12-24T06:24:04.708Z,9.9
2022-12-24T06:29:49.330Z,9.6
2022-12-24T06:35:12.459Z,9.8
2022-12-24T06:40:41.097Z,9.4
2022-12-24T06:46:17.684Z,9.6
2022-12-24T06:51:42.653Z,9.5
2022-12-24T06:57:28.156Z,9.5
2022-12-24T07:03:03.275Z,9.3
2022-12-24T07:08:25.573Z,9
2022-12-24T07:14:00.597Z,9
2022-12-24T07:19:18.374Z,8.8
2022-12-24T07:25:12.891Z,8.7
2022-12-24T07:30:33.939Z,8.7
2022-12-24T07:35:56.121Z,8.7
2022-12-24T07:41:43.491Z,8.6
2022-12-24T07:47:23.340Z,8.6
2022-12-24T07:52:42.536Z,8.5
2022-12-24T07:58:13.340Z,8.5
2022-12-24T08:03:45.585Z,8.4
2022-12-24T08:09:12.699Z,8.5
2022-12-24T08:14:55.381Z,8.5
2022-12-24T08:20:28.160Z,8.4
2022-12-24T08:25:48.034Z,8.3
2022-12-24T08:31:27.734Z,8.3
2022-12-24T08:37:10.276Z,8.3
2022-12-24T08:42:37.924Z,8.2
2022-12-24T08:48:14.621Z,8.2
2022-12-24T08:53:32.679Z,8.2
2022-12-24T08:59:06.625Z,8.2
2022-12-24T09:04:53.358Z,8.2
2022-12-24T09:10:08.148Z,8.3
2022-12-24T09:15:39.073Z,8.2
2022-12-24T09:21:20.348Z,8.3
2022-12-24T09:26:58.942Z,8.3
2022-12-24T09:32:20.069Z,8.3
2022-12-24T09:37:56.799Z,8.4
2022-12-24T09:43:29.560Z,8.4
2022-12-24T09:48:44.967Z,8.4
2022-12-24T09:54:19.650Z,8.4
2022-12-24T10:00:11.777Z,8.5
2022-12-24T10:05:36.314Z,8.5
2022-12-24T10:11:17.794Z,8.6
2022-12-24T10:16:49.698Z,8.5
2022-12-24T10:22:11.685Z,8.6
2022-12-24T10:27:54.232Z,8.6
2022-12-24T10:33:21.987Z,8.5
2022-12-24T10:38:48.177Z,8.6
2022-12-24T10:44:16.701Z,8.7
2022-12-24T10:49:53.173Z,8.6
2022-12-24T10:55:22.554Z,8.6
2022-12-24T11:00:51.594Z,8.6
2022-12-24T11:06:32.133Z,8.6
2022-12-24T11:12:02.531Z,8.6
2022-12-24T11:17:20.915Z,8.5
2022-12-24T11:23:06.317Z,8.5
2022-12-24T11:28:25.598Z,8.6
2022-12-24T11:34:25.422Z,8.5
2022-12-24T11:39:39.464Z,8.6
2022-12-24T11:45:20.897Z,8.5
2022-12-24T11:50:45.129Z,8.4
2022-12-24T11:56:27.275Z,8.3
2022-12-24T12:01:43.693Z,8.4
2022-12-24T12:07:28.678Z,8.4
2022-12-24T12:12:50.649Z,8.4
2022-12-24T12:18:32.619Z,8.4
2022-12-24T12:24:12.274Z,8.3
2022-12-24T12:29:25.224Z,8.2
2022-12-24T12:35:05.652Z,8.2
2022-12-24T12:40:23.206Z,8.3
2022-12-24T12:46:09.965Z,8.3
2022-12-24T12:51:34.240Z,8.4
2022-12-24T12:57:00.370Z,8.3
2022-12-24T13:02:52.216Z,8.4
2022-12-24T13:08:19.197Z,8.3
2022-12-24T13:13:41.871Z,8.3
2022-12-24T13:19:25.888Z,8.3
2022-12-24T13:25:01.655Z,8.3
2022-12-24T13:30:35.286Z,8.3
2022-12-24T13:35:45.785Z,8.3
2022-12-24T13:41:34.381Z,8.4
2022-12-24T13:47:14.214Z,8.3
2022-12-24T13:52:42.256Z,8.4
2022-12-24T13:58:19.358Z,8.4
2022-12-24T14:03:49.559Z,8.4
2022-12-24T14:09:20.706Z,8.4
2022-12-24T14:14:38.700Z,8.4
2022-12-24T14:20:23.154Z,8.4
2022-12-24T14:25:50.560Z,8.4
2022-12-24T14:31:35.024Z,8.5
2022-12-24T14:37:03.109Z,8.5
2022-12-24T14:42:11.616Z,8.4
2022-12-24T14:48:00.173Z,8.4
2022-12-24T14:53:44.214Z,8.4
2022-12-24T14:59:10.242Z,8.4
2022-12-24T15:04:47.369Z,8.4
2022-12-24T15:10:09.277Z,8.4
2022-12-24T15:15:40.737Z,8.4
2022-12-24T15:21:04.219Z,8.4
2022-12-24T15:26:34.309Z,8.4
2022-12-24T15:32:04.769Z,8.3
2022-12-24T15:37:59.419Z,8.3
2022-12-24T15:43:22.105Z,8.3
2022-12-24T15:48:39.844Z,8.3
2022-12-24T15:54:33.076Z,8.3
2022-12-24T16:00:08.900Z,8.4
2022-12-24T16:05:21.170Z,8.4
2022-12-24T16:11:04.145Z,8.4
2022-12-24T16:16:44.444Z,8.4
2022-12-24T16:22:05.346Z,8.4
2022-12-24T16:27:50.529Z,8.3
2022-12-24T16:32:57.854Z,8.3
2022-12-24T16:38:51.240Z,8.3
2022-12-24T16:44:21.980Z,8.3
2022-12-24T16:49:40.838Z,8.3
2022-12-24T16:55:26.468Z,8.3
2022-12-24T17:00:53.474Z,8.2
2022-12-24T17:06:16.481Z,8.3
2022-12-24T17:11:41.609Z,8.3
2022-12-24T17:17:31.635Z,8.3
2022-12-24T17:23:02.057Z,8.2
2022-12-24T17:28:37.616Z,8.2
2022-12-24T17:33:54.178Z,8.3
2022-12-24T17:39:28.210Z,8.3
2022-12-24T17:45:02.079Z,8.3
2022-12-24T17:50:30.802Z,8.3
2022-12-24T17:56:24.775Z,8.3
2022-12-24T18:01:45.049Z,8.3
2022-12-24T18:07:21.801Z,8.2
2022-12-24T18:12:42.926Z,8.2
2022-12-24T18:18:12.179Z,8.2
2022-12-24T18:23:47.548Z,8.2
2022-12-24T18:29:13.810Z,8.2
2022-12-24T18:35:05.263Z,8.2
2022-12-24T18:40:23.648Z,8.3
2022-12-24T18:46:03.272Z,8.3
2022-12-24T18:51:24.537Z,8.3
2022-12-24T18:57:07.848Z,8.4
2022-12-24T19:02:32.236Z,8.3
2022-12-24T19:08:15.997Z,8.3
2022-12-24T19:13:47.456Z,8.3
2022-12-24T19:19:17.813Z,8.3
2022-12-24T19:24:45.250Z,8.2
2022-12-24T19:30:23.410Z,8.2
2022-12-24T19:35:41.840Z,8.3
2022-12-24T19:41:32.420Z,8.2
2022-12-24T19:46:39.690Z,8.2
2022-12-24T19:52:21.839Z,8.2
2022-12-24T19:57:54.105Z,8.2
2022-12-24T20:03:19.027Z,8.2
2022-12-24T20:09:00.439Z,8.3
2022-12-24T20:14:48.355Z,8.3
2022-12-24T20:20:12.604Z,8.2
2022-12-24T20:25:35.250Z,8.2
2022-12-24T20:31:05.797Z,8.2
2022-12-24T20:36:48.689Z,8.2
2022-12-24T20:42:15.219Z,8.2
2022-12-24T20:47:49.598Z,8.2
2022-12-24T20:53:30.323Z,8.2
2022-12-24T20:58:46.310Z,8.2
2022-12-24T21:04:09.368Z,8.2
2022-12-24T21:09:43.245Z,8.2
2022-12-24T21:15:28.509Z,8.1
2022-12-24T21:21:01.866Z,8.1
2022-12-24T21:26:29.776Z,8.2
2022-12-24T21:32:15.983Z,8.1
2022-12-24T21:37:43.927Z,8.2
2022-12-24T21:43:07.660Z,8.2
2022-12-24T21:48:47.312Z,8.2
2022-12-24T21:54:06.244Z,8.2
2022-12-24T21:59:58.585Z,8.3
2022-12-24T22:05:28.236Z,8.2
2022-12-24T22:10:43.169Z,8.2
2022-12-24T22:16:25.869Z,8.2
2022-12-24T22:21:41.973Z,8.2
2022-12-24T22:27:16.683Z,8.2
2022-12-24T22:33:04.069Z,8.3
2022-12-24T22:38:25.637Z,8.2
2022-12-24T22:44:00.457Z,8.2
2022-12-24T22:49:21.930Z,8.2
2022-12-24T22:54:58.223Z,8.1
2022-12-24T23:00:50.218Z,8.2
2022-12-24T23:06:11.704Z,8.2
2022-12-24T23:11:44.596Z,8.1
2022-12-24T23:17:09.923Z,8.1
2022-12-24T23:22:41.900Z,8.1
2022-12-24T23:28:07.502Z,8.1
2022-12-24T23:33:56.415Z,8.1
2022-12-24T23:39:13.362Z,8.1
2022-12-24T23:44:41.810Z,8.1
2022-12-24T23:50:34.996Z,8.2
2022-12-24T23:56:05.655Z,8.2
